< < Back
Terminal Aerodrome Forecast


Current Version              Previous Versions:   1  2  3  4  5  6  7  8  9  

Terminal Aerodrome Forecast

705
FTUS42 KCAE 210900 AAA
TAFAGS
TAF AMD
KAGS 210928Z 2109/2206 35004KT P6SM SKC
     FM211400 36007KT P6SM SKC
     FM212300 VRB03KT P6SM SKC=



Latest METAR

193
SAUS70 KWBC 211200 RRB
MTRAGS
METAR KAGS 211153Z 34007KT 10SM CLR 11/06 A3017 RMK AO2 SLP215 T01060061
10106 20067 53016


USA.gov is the U.S. government's official web portal to all federal, state and local government web resources and services.